Navios Pollux — 3FPO2 — position and weather

sailwx.info

Track history (hours):
 
Tides and Currents Weather Stations Pressure Air Temp Water Temp Dewpoint Dewpoint Depression Visibility Wind Speed Wind Dir Waves Ship Positions

Navios Pollux

Last reported at 2017-Apr-29 17:28 UTC. Time now 2017-Apr-29 17:36 UTC.
Position N 51°56' E 004°11'.

Length 292 m; draft 18.2 m.

Type: Cargo ship. MMSI: 370290000.

Date/timePositionNaut miles runAvg speedWind from/ knotsBaromVisibWave heightAir tempDewpointWater temp
2017-Apr-29 17:28N 51°56' E 004°11'0 0.0
2017-Apr-29 17:01N 51°56' E 004°11'0 0.0
2017-Apr-29 16:28N 51°56' E 004°11'0 0.0
2017-Apr-29 15:58N 51°56' E 004°11'0 0.0
2017-Apr-29 15:28N 51°56' E 004°11'0 0.0
2017-Apr-29 14:58N 51°56' E 004°11'0 0.0
2017-Apr-29 13:58N 51°56' E 004°11'0 0.0
2017-Apr-29 13:28N 51°56' E 004°11'0 0.0
2017-Apr-29 12:58N 51°56' E 004°11'0 0.0
2017-Apr-29 12:28N 51°56' E 004°11'0 0.0
2017-Apr-29 11:58N 51°56' E 004°11'0 0.0
2017-Apr-29 11:28N 51°56' E 004°11'0 0.0
2017-Apr-29 10:58N 51°56' E 004°11'0 0.0
2017-Apr-29 10:28N 51°56' E 004°11'0 0.0
2017-Apr-29 09:58N 51°56' E 004°11'0 0.0
2017-Apr-29 09:28N 51°56' E 004°11'0 0.0
2017-Apr-29 08:58N 51°56' E 004°11'0 0.0
2017-Apr-29 08:28N 51°56' E 004°11'0 0.0
2017-Apr-29 07:58N 51°56' E 004°11'0 0.0
2017-Apr-29 07:28N 51°56' E 004°11'0 0.0
2017-Apr-29 06:58N 51°56' E 004°11'0 0.0
2017-Apr-29 06:28N 51°56' E 004°11'0 0.0
2017-Apr-29 05:58N 51°56' E 004°11'0 0.0
2017-Apr-29 05:28N 51°56' E 004°11'0 0.0
2017-Apr-29 04:58N 51°56' E 004°11'0 0.0
2017-Apr-29 04:28N 51°56' E 004°11'0 0.0
2017-Apr-29 03:58N 51°56' E 004°11'0 0.0
2017-Apr-29 03:28N 51°56' E 004°11'0 0.0
2017-Apr-29 02:58N 51°56' E 004°11'0 0.0
2017-Apr-29 02:28N 51°56' E 004°11'0 0.0
2017-Apr-29 01:58N 51°56' E 004°11'0 0.0
2017-Apr-29 01:28N 51°56' E 004°11'0 0.0
2017-Apr-29 00:58N 51°56' E 004°11'0 0.0
2017-Apr-29 00:28N 51°56' E 004°11'0 0.0
2017-Apr-28 23:58N 51°56' E 004°11'0 0.0
2017-Apr-28 23:28N 51°56' E 004°11'0 0.0
2017-Apr-28 22:58N 51°56' E 004°11'0 0.0
2017-Apr-28 22:28N 51°56' E 004°11'0 0.0
2017-Apr-28 21:58N 51°56' E 004°11'0 0.0
2017-Apr-28 21:28N 51°56' E 004°11'0 0.0
2017-Apr-28 20:58N 51°56' E 004°11'0 0.0
2017-Apr-28 20:28N 51°56' E 004°11'0 0.0
2017-Apr-28 19:58N 51°56' E 004°11'0 0.0
2017-Apr-28 19:28N 51°56' E 004°11'0 0.0
2017-Apr-28 18:58N 51°56' E 004°11'0 0.1
2017-Apr-28 18:30N 51°56' E 004°11'1 1.6
2017-Apr-28 18:00N 51°57' E 004°10'1 1.2
2017-Apr-28 17:30N 51°57' E 004°09'2 3.1
2017-Apr-28 17:00N 51°58' E 004°07'2 4.0
2017-Apr-28 16:30N 51°59' E 004°05'3 5.3
2017-Apr-28 16:00N 51°60' E 004°01'3 7.0
2017-Apr-28 15:30N 52°01' E 003°55'5 9.3
2017-Apr-28 15:00N 52°01' E 003°48'11 9.7
2017-Apr-28 13:55N 51°60' E 003°31'5 9.8
2017-Apr-28 13:22N 51°59' E 003°22'410.2
2017-Apr-28 12:59N 51°59' E 003°16'510.3
2017-Apr-28 12:30N 51°58' E 003°08'5 9.2
2017-Apr-28 11:59N 51°59' E 002°60'4 7.9
2017-Apr-28 11:30N 51°57' E 002°55'2 4.0
2017-Apr-28 10:59N 51°55' E 002°53'0 0.2
2017-Apr-28 10:29N 51°55' E 002°53'  
2017-Apr-25 16:04N 51°50' E 002°41'1 8.6
2017-Apr-25 15:57N 51°49' E 002°40'6 9.0
2017-Apr-25 15:20N 51°45' E 002°34'3 9.3
2017-Apr-25 14:59N 51°43' E 002°30'9 9.6
2017-Apr-25 14:00N 51°36' E 002°20'510.1
2017-Apr-25 13:28N 51°32' E 002°15'510.1
2017-Apr-25 13:00N 51°28' E 002°09'510.0
2017-Apr-25 12:30N 51°25' E 002°04'5 9.9
2017-Apr-25 12:00N 51°21' E 001°58'510.2
2017-Apr-25 11:30N 51°17' E 001°54'510.3
2017-Apr-25 11:00N 51°13' E 001°49'5 9.2
2017-Apr-25 10:30N 51°09' E 001°44'4 8.8
2017-Apr-25 10:00N 51°05' E 001°45'3 4.2
2017-Apr-25 09:24N 51°02' E 001°44'0 0.3
2017-Apr-25 09:01N 51°02' E 001°44'0 0.6
2017-Apr-25 08:30N 51°02' E 001°44'0 0.1
2017-Apr-25 08:00N 51°02' E 001°44'0 0.0
2017-Apr-25 07:27N 51°02' E 001°44'0 0.0
2017-Apr-25 07:00N 51°02' E 001°44'0 0.0
2017-Apr-25 06:30N 51°02' E 001°44'0 0.0
2017-Apr-25 05:57N 51°02' E 001°44'0 0.0
2017-Apr-25 05:30N 51°02' E 001°44'0 0.0
2017-Apr-25 05:00N 51°02' E 001°44'0 0.0
2017-Apr-25 04:30N 51°02' E 001°44'0 0.0
2017-Apr-25 04:00N 51°02' E 001°44'0 0.2
2017-Apr-25 03:31N 51°02' E 001°44'0 0.3
2017-Apr-25 03:01N 51°02' E 001°44'0 0.4
2017-Apr-25 02:31N 51°02' E 001°44'0 0.4
2017-Apr-25 02:01N 51°02' E 001°44'0 0.1
2017-Apr-25 01:30N 51°02' E 001°44'0 0.0
2017-Apr-25 01:00N 51°02' E 001°44'0 0.0
2017-Apr-25 00:31N 51°02' E 001°44'0 0.0
2017-Apr-25 00:00N 51°02' E 001°44'0 0.2
2017-Apr-24 23:30N 51°02' E 001°45'0 0.9
2017-Apr-24 23:01N 51°02' E 001°45'3 5.5
2017-Apr-24 22:30N 51°01' E 001°41'4 7.1
2017-Apr-24 22:00N 50°59' E 001°37'5 9.5
2017-Apr-24 21:31N 50°56' E 001°31'5 9.8
2017-Apr-24 21:00N 50°51' E 001°28'5 9.1
2017-Apr-24 20:30N 50°47' E 001°25'4 8.8
2017-Apr-24 20:00N 50°43' E 001°22'4 8.4
2017-Apr-24 19:30N 50°40' E 001°18'3310.4
2017-Apr-24 16:22N 50°25' E 000°32'3 7.9
2017-Apr-24 15:58N 50°24' E 000°27'5 7.4
2017-Apr-24 15:18N 50°22' E 000°20'2 6.4
2017-Apr-24 15:01N 50°22' E 000°17'3 6.7
2017-Apr-24 14:30N 50°21' E 000°12'7 6.9
2017-Apr-24 13:30N 50°20' E 000°01'3 6.9
2017-Apr-24 13:00N 50°19' W 000°04'3 6.9
2017-Apr-24 12:30N 50°18' W 000°09'3 6.9
2017-Apr-24 12:00N 50°17' W 000°14'3 6.8
2017-Apr-24 11:30N 50°16' W 000°19'3 7.0
2017-Apr-24 11:00N 50°15' W 000°25'4 7.3
2017-Apr-24 10:30N 50°14' W 000°30'5 7.8
2017-Apr-24 09:53N 50°13' W 000°38'3 8.4
2017-Apr-24 09:30N 50°12' W 000°43'5 9.1
2017-Apr-24 08:58N 50°11' W 000°50'2410.8
2017-Apr-24 06:46N 50°04' W 001°25'311.9
2017-Apr-24 06:30N 50°03' W 001°30'812.2
2017-Apr-24 05:49N 50°01' W 001°42'512.2
2017-Apr-24 05:27N 49°60' W 001°49'712.1
2017-Apr-24 04:54N 49°58' W 001°59'1410.8
2017-Apr-24 03:38N 49°54' W 002°19'1 9.7
2017-Apr-24 03:29N 49°54' W 002°22'5 9.4
2017-Apr-24 02:57N 49°53' W 002°29'4 8.9
2017-Apr-24 02:28N 49°51' W 002°36'4 8.5
2017-Apr-24 02:00N 49°50' W 002°41'4 8.2
2017-Apr-24 01:31N 49°49' W 002°47'4 7.8
2017-Apr-24 01:01N 49°48' W 002°53'4 7.2
2017-Apr-24 00:30N 49°47' W 002°58'4 7.1
2017-Apr-24 00:01N 49°45' W 003°03'3 7.0
2017-Apr-23 23:31N 49°43' W 003°08'4 7.0
2017-Apr-23 23:01N 49°41' W 003°12'4 7.1
2017-Apr-23 22:30N 49°40' W 003°17'4 7.2
2017-Apr-23 22:01N 49°38' W 003°22'4 7.2
2017-Apr-23 21:30N 49°36' W 003°27'4 7.4
2017-Apr-23 21:00N 49°34' W 003°32'4 7.5
2017-Apr-23 20:30N 49°32' W 003°37'4 7.5
2017-Apr-23 20:00N 49°31' W 003°42'4 7.7
2017-Apr-23 19:28N 49°28' W 003°47'4 7.9
2017-Apr-23 19:01N 49°27' W 003°52'4 8.0
2017-Apr-23 18:30N 49°24' W 003°57'4 8.2
2017-Apr-23 18:00N 49°22' W 004°03'4 8.3
2017-Apr-23 17:31N 49°20' W 004°08'4 8.6
2017-Apr-23 17:00N 49°18' W 004°14'4 8.8
2017-Apr-23 16:30N 49°16' W 004°20'5 9.0
2017-Apr-23 16:00N 49°13' W 004°26'5 9.2
2017-Apr-23 15:30N 49°11' W 004°32'5 9.4
2017-Apr-23 15:00N 49°09' W 004°38'5 9.5
2017-Apr-23 14:30N 49°06' W 004°44'10 9.9
2017-Apr-23 13:31N 49°02' W 004°57'5 9.7
2017-Apr-23 13:01N 48°59' W 005°04'5 9.6
2017-Apr-23 12:30N 48°57' W 005°10'5 9.4
2017-Apr-23 12:00N 48°54' W 005°16'5 9.2
2017-Apr-23 11:30N 48°52' W 005°22'4 9.0
2017-Apr-23 11:00N 48°50' W 005°28'4 8.7
2017-Apr-23 10:30N 48°48' W 005°34'4 8.2
2017-Apr-23 09:59N 48°45' W 005°39'7 8.3
2017-Apr-23 09:08N 48°39' W 005°44'2 8.1
2017-Apr-23 08:56N 48°37' W 005°45'3 7.9
2017-Apr-23 08:30N 48°34' W 005°47'5 7.5
2017-Apr-23 07:48N 48°29' W 005°51'161 7.7
2017-Apr-22 10:54N 46°15' W 008°02'3 7.7
2017-Apr-22 10:30N 46°13' W 008°04'4 7.9
2017-Apr-22 10:00N 46°10' W 008°08'3 6.5
2017-Apr-22 09:31N 46°07' W 008°11'3 6.3
2017-Apr-22 09:00N 46°04' W 008°12'4 7.7
2017-Apr-22 08:30N 46°01' W 008°16'4 7.6
2017-Apr-22 08:00N 45°58' W 008°19'4 7.6
2017-Apr-22 07:31N 45°55' W 008°22'4 7.5
2017-Apr-22 07:01N 45°52' W 008°25'5 7.6
2017-Apr-22 06:22N 45°48' W 008°28'  
Track history (hours):
 
Tides and Currents Weather Stations Pressure Air Temp Water Temp Dewpoint Dewpoint Depression Visibility Wind Speed Wind Dir Waves Ship Positions

Navios Pollux

Last reported at 2017-Apr-29 17:28 UTC. Time now 2017-Apr-29 17:36 UTC.
Position N 51°56' E 004°11'.

Length 292 m; draft 18.2 m.

Type: Cargo ship. MMSI: 370290000.

Date/timePositionNaut miles runAvg speedWind from/ knotsBaromVisibWave heightAir tempDewpointWater temp
2017-Apr-29 17:28N 51°56' E 004°11'0 0.0
2017-Apr-29 17:01N 51°56' E 004°11'0 0.0
2017-Apr-29 16:28N 51°56' E 004°11'0 0.0
2017-Apr-29 15:58N 51°56' E 004°11'0 0.0
2017-Apr-29 15:28N 51°56' E 004°11'0 0.0
2017-Apr-29 14:58N 51°56' E 004°11'0 0.0
2017-Apr-29 13:58N 51°56' E 004°11'0 0.0
2017-Apr-29 13:28N 51°56' E 004°11'0 0.0
2017-Apr-29 12:58N 51°56' E 004°11'0 0.0
2017-Apr-29 12:28N 51°56' E 004°11'0 0.0
2017-Apr-29 11:58N 51°56' E 004°11'0 0.0
2017-Apr-29 11:28N 51°56' E 004°11'0 0.0
2017-Apr-29 10:58N 51°56' E 004°11'0 0.0
2017-Apr-29 10:28N 51°56' E 004°11'0 0.0
2017-Apr-29 09:58N 51°56' E 004°11'0 0.0
2017-Apr-29 09:28N 51°56' E 004°11'0 0.0
2017-Apr-29 08:58N 51°56' E 004°11'0 0.0
2017-Apr-29 08:28N 51°56' E 004°11'0 0.0
2017-Apr-29 07:58N 51°56' E 004°11'0 0.0
2017-Apr-29 07:28N 51°56' E 004°11'0 0.0
2017-Apr-29 06:58N 51°56' E 004°11'0 0.0
2017-Apr-29 06:28N 51°56' E 004°11'0 0.0
2017-Apr-29 05:58N 51°56' E 004°11'0 0.0
2017-Apr-29 05:28N 51°56' E 004°11'0 0.0
2017-Apr-29 04:58N 51°56' E 004°11'0 0.0
2017-Apr-29 04:28N 51°56' E 004°11'0 0.0
2017-Apr-29 03:58N 51°56' E 004°11'0 0.0
2017-Apr-29 03:28N 51°56' E 004°11'0 0.0
2017-Apr-29 02:58N 51°56' E 004°11'0 0.0
2017-Apr-29 02:28N 51°56' E 004°11'0 0.0
2017-Apr-29 01:58N 51°56' E 004°11'0 0.0
2017-Apr-29 01:28N 51°56' E 004°11'0 0.0
2017-Apr-29 00:58N 51°56' E 004°11'0 0.0
2017-Apr-29 00:28N 51°56' E 004°11'0 0.0
2017-Apr-28 23:58N 51°56' E 004°11'0 0.0
2017-Apr-28 23:28N 51°56' E 004°11'0 0.0
2017-Apr-28 22:58N 51°56' E 004°11'0 0.0
2017-Apr-28 22:28N 51°56' E 004°11'0 0.0
2017-Apr-28 21:58N 51°56' E 004°11'0 0.0
2017-Apr-28 21:28N 51°56' E 004°11'0 0.0
2017-Apr-28 20:58N 51°56' E 004°11'0 0.0
2017-Apr-28 20:28N 51°56' E 004°11'0 0.0
2017-Apr-28 19:58N 51°56' E 004°11'0 0.0
2017-Apr-28 19:28N 51°56' E 004°11'0 0.0
2017-Apr-28 18:58N 51°56' E 004°11'0 0.1
2017-Apr-28 18:30N 51°56' E 004°11'1 1.6
2017-Apr-28 18:00N 51°57' E 004°10'1 1.2
2017-Apr-28 17:30N 51°57' E 004°09'2 3.1
2017-Apr-28 17:00N 51°58' E 004°07'2 4.0
2017-Apr-28 16:30N 51°59' E 004°05'3 5.3
2017-Apr-28 16:00N 51°60' E 004°01'3 7.0
2017-Apr-28 15:30N 52°01' E 003°55'5 9.3
2017-Apr-28 15:00N 52°01' E 003°48'11 9.7
2017-Apr-28 13:55N 51°60' E 003°31'5 9.8
2017-Apr-28 13:22N 51°59' E 003°22'410.2
2017-Apr-28 12:59N 51°59' E 003°16'510.3
2017-Apr-28 12:30N 51°58' E 003°08'5 9.2
2017-Apr-28 11:59N 51°59' E 002°60'4 7.9
2017-Apr-28 11:30N 51°57' E 002°55'2 4.0
2017-Apr-28 10:59N 51°55' E 002°53'0 0.2
2017-Apr-28 10:29N 51°55' E 002°53'  
2017-Apr-25 16:04N 51°50' E 002°41'1 8.6
2017-Apr-25 15:57N 51°49' E 002°40'6 9.0
2017-Apr-25 15:20N 51°45' E 002°34'3 9.3
2017-Apr-25 14:59N 51°43' E 002°30'9 9.6
2017-Apr-25 14:00N 51°36' E 002°20'510.1
2017-Apr-25 13:28N 51°32' E 002°15'510.1
2017-Apr-25 13:00N 51°28' E 002°09'510.0
2017-Apr-25 12:30N 51°25' E 002°04'5 9.9
2017-Apr-25 12:00N 51°21' E 001°58'510.2
2017-Apr-25 11:30N 51°17' E 001°54'510.3
2017-Apr-25 11:00N 51°13' E 001°49'5 9.2
2017-Apr-25 10:30N 51°09' E 001°44'4 8.8
2017-Apr-25 10:00N 51°05' E 001°45'3 4.2
2017-Apr-25 09:24N 51°02' E 001°44'0 0.3
2017-Apr-25 09:01N 51°02' E 001°44'0 0.6
2017-Apr-25 08:30N 51°02' E 001°44'0 0.1
2017-Apr-25 08:00N 51°02' E 001°44'0 0.0
2017-Apr-25 07:27N 51°02' E 001°44'0 0.0
2017-Apr-25 07:00N 51°02' E 001°44'0 0.0
2017-Apr-25 06:30N 51°02' E 001°44'0 0.0
2017-Apr-25 05:57N 51°02' E 001°44'0 0.0
2017-Apr-25 05:30N 51°02' E 001°44'0 0.0
2017-Apr-25 05:00N 51°02' E 001°44'0 0.0
2017-Apr-25 04:30N 51°02' E 001°44'0 0.0
2017-Apr-25 04:00N 51°02' E 001°44'0 0.2
2017-Apr-25 03:31N 51°02' E 001°44'0 0.3
2017-Apr-25 03:01N 51°02' E 001°44'0 0.4
2017-Apr-25 02:31N 51°02' E 001°44'0 0.4
2017-Apr-25 02:01N 51°02' E 001°44'0 0.1
2017-Apr-25 01:30N 51°02' E 001°44'0 0.0
2017-Apr-25 01:00N 51°02' E 001°44'0 0.0
2017-Apr-25 00:31N 51°02' E 001°44'0 0.0
2017-Apr-25 00:00N 51°02' E 001°44'0 0.2
2017-Apr-24 23:30N 51°02' E 001°45'0 0.9
2017-Apr-24 23:01N 51°02' E 001°45'3 5.5
2017-Apr-24 22:30N 51°01' E 001°41'4 7.1
2017-Apr-24 22:00N 50°59' E 001°37'5 9.5
2017-Apr-24 21:31N 50°56' E 001°31'5 9.8
2017-Apr-24 21:00N 50°51' E 001°28'5 9.1
2017-Apr-24 20:30N 50°47' E 001°25'4 8.8
2017-Apr-24 20:00N 50°43' E 001°22'4 8.4
2017-Apr-24 19:30N 50°40' E 001°18'3310.4
2017-Apr-24 16:22N 50°25' E 000°32'3 7.9
2017-Apr-24 15:58N 50°24' E 000°27'5 7.4
2017-Apr-24 15:18N 50°22' E 000°20'2 6.4
2017-Apr-24 15:01N 50°22' E 000°17'3 6.7
2017-Apr-24 14:30N 50°21' E 000°12'7 6.9
2017-Apr-24 13:30N 50°20' E 000°01'3 6.9
2017-Apr-24 13:00N 50°19' W 000°04'3 6.9
2017-Apr-24 12:30N 50°18' W 000°09'3 6.9
2017-Apr-24 12:00N 50°17' W 000°14'3 6.8
2017-Apr-24 11:30N 50°16' W 000°19'3 7.0
2017-Apr-24 11:00N 50°15' W 000°25'4 7.3
2017-Apr-24 10:30N 50°14' W 000°30'5 7.8
2017-Apr-24 09:53N 50°13' W 000°38'3 8.4
2017-Apr-24 09:30N 50°12' W 000°43'5 9.1
2017-Apr-24 08:58N 50°11' W 000°50'2410.8
2017-Apr-24 06:46N 50°04' W 001°25'311.9
2017-Apr-24 06:30N 50°03' W 001°30'812.2
2017-Apr-24 05:49N 50°01' W 001°42'512.2
2017-Apr-24 05:27N 49°60' W 001°49'712.1
2017-Apr-24 04:54N 49°58' W 001°59'1410.8
2017-Apr-24 03:38N 49°54' W 002°19'1 9.7
2017-Apr-24 03:29N 49°54' W 002°22'5 9.4
2017-Apr-24 02:57N 49°53' W 002°29'4 8.9
2017-Apr-24 02:28N 49°51' W 002°36'4 8.5
2017-Apr-24 02:00N 49°50' W 002°41'4 8.2
2017-Apr-24 01:31N 49°49' W 002°47'4 7.8
2017-Apr-24 01:01N 49°48' W 002°53'4 7.2
2017-Apr-24 00:30N 49°47' W 002°58'4 7.1
2017-Apr-24 00:01N 49°45' W 003°03'3 7.0
2017-Apr-23 23:31N 49°43' W 003°08'4 7.0
2017-Apr-23 23:01N 49°41' W 003°12'4 7.1
2017-Apr-23 22:30N 49°40' W 003°17'4 7.2
2017-Apr-23 22:01N 49°38' W 003°22'4 7.2
2017-Apr-23 21:30N 49°36' W 003°27'4 7.4
2017-Apr-23 21:00N 49°34' W 003°32'4 7.5
2017-Apr-23 20:30N 49°32' W 003°37'4 7.5
2017-Apr-23 20:00N 49°31' W 003°42'4 7.7
2017-Apr-23 19:28N 49°28' W 003°47'4 7.9
2017-Apr-23 19:01N 49°27' W 003°52'4 8.0
2017-Apr-23 18:30N 49°24' W 003°57'4 8.2
2017-Apr-23 18:00N 49°22' W 004°03'4 8.3
2017-Apr-23 17:31N 49°20' W 004°08'4 8.6
2017-Apr-23 17:00N 49°18' W 004°14'4 8.8
2017-Apr-23 16:30N 49°16' W 004°20'5 9.0
2017-Apr-23 16:00N 49°13' W 004°26'5 9.2
2017-Apr-23 15:30N 49°11' W 004°32'5 9.4
2017-Apr-23 15:00N 49°09' W 004°38'5 9.5
2017-Apr-23 14:30N 49°06' W 004°44'10 9.9
2017-Apr-23 13:31N 49°02' W 004°57'5 9.7
2017-Apr-23 13:01N 48°59' W 005°04'5 9.6
2017-Apr-23 12:30N 48°57' W 005°10'5 9.4
2017-Apr-23 12:00N 48°54' W 005°16'5 9.2
2017-Apr-23 11:30N 48°52' W 005°22'4 9.0
2017-Apr-23 11:00N 48°50' W 005°28'4 8.7
2017-Apr-23 10:30N 48°48' W 005°34'4 8.2
2017-Apr-23 09:59N 48°45' W 005°39'7 8.3
2017-Apr-23 09:08N 48°39' W 005°44'2 8.1
2017-Apr-23 08:56N 48°37' W 005°45'3 7.9
2017-Apr-23 08:30N 48°34' W 005°47'5 7.5
2017-Apr-23 07:48N 48°29' W 005°51'161 7.7
2017-Apr-22 10:54N 46°15' W 008°02'3 7.7
2017-Apr-22 10:30N 46°13' W 008°04'4 7.9
2017-Apr-22 10:00N 46°10' W 008°08'3 6.5
2017-Apr-22 09:31N 46°07' W 008°11'3 6.3
2017-Apr-22 09:00N 46°04' W 008°12'4 7.7
2017-Apr-22 08:30N 46°01' W 008°16'4 7.6
2017-Apr-22 08:00N 45°58' W 008°19'4 7.6
2017-Apr-22 07:31N 45°55' W 008°22'4 7.5
2017-Apr-22 07:01N 45°52' W 008°25'5 7.6
2017-Apr-22 06:22N 45°48' W 008°28'  

Dump ship's entire track history